sensor_id;sensor_type;location;lat;lon;timestamp;P1;durP1;ratioP1;P2;durP2;ratioP2
67685;SDS011;54469;52.090;4.312;2022-07-06T00:00:03;2.1;;;0.5;;
67685;SDS011;54469;52.090;4.312;2022-07-06T00:05:03;2.1;;;0.5;;
67685;SDS011;54469;52.090;4.312;2022-07-06T00:10:03;4.3;;;0.5;;
67685;SDS011;54469;52.090;4.312;2022-07-06T00:15:03;4.3;;;0.5;;
67685;SDS011;54469;52.090;4.312;2022-07-06T00:20:04;2.2;;;0.3;;
67685;SDS011;54469;52.090;4.312;2022-07-06T00:25:03;2.2;;;0.3;;
67685;SDS011;54469;52.090;4.312;2022-07-06T00:30:03;2.2;;;0.3;;
67685;SDS011;54469;52.090;4.312;2022-07-06T00:35:03;2.2;;;0.3;;
67685;SDS011;54469;52.090;4.312;2022-07-06T00:40:04;2.2;;;0.3;;
67685;SDS011;54469;52.090;4.312;2022-07-06T00:45:03;2.2;;;0.3;;
67685;SDS011;54469;52.090;4.312;2022-07-06T00:50:03;2.2;;;0.3;;
67685;SDS011;54469;52.090;4.312;2022-07-06T00:55:03;2.2;;;0.3;;
67685;SDS011;54469;52.090;4.312;2022-07-06T01:00:03;4.5;;;0.6;;
67685;SDS011;54469;52.090;4.312;2022-07-06T01:05:04;4.5;;;0.6;;
67685;SDS011;54469;52.090;4.312;2022-07-06T01:10:04;4.5;;;0.6;;
67685;SDS011;54469;52.090;4.312;2022-07-06T01:15:03;4.5;;;0.6;;
67685;SDS011;54469;52.090;4.312;2022-07-06T01:20:07;1.6;;;0.4;;
67685;SDS011;54469;52.090;4.312;2022-07-06T01:25:03;1.6;;;0.4;;
67685;SDS011;54469;52.090;4.312;2022-07-06T01:30:04;1.6;;;0.4;;
67685;SDS011;54469;52.090;4.312;2022-07-06T01:35:03;1.6;;;0.4;;
67685;SDS011;54469;52.090;4.312;2022-07-06T01:40:04;4.4;;;0.7;;
67685;SDS011;54469;52.090;4.312;2022-07-06T01:45:04;4.4;;;0.7;;
67685;SDS011;54469;52.090;4.312;2022-07-06T01:50:04;4.4;;;0.7;;
67685;SDS011;54469;52.090;4.312;2022-07-06T01:55:03;2.3;;;0.4;;
67685;SDS011;54469;52.090;4.312;2022-07-06T02:00:04;2.3;;;0.4;;
67685;SDS011;54469;52.090;4.312;2022-07-06T02:05:03;2.3;;;0.4;;
67685;SDS011;54469;52.090;4.312;2022-07-06T02:10:03;2.3;;;0.4;;
67685;SDS011;54469;52.090;4.312;2022-07-06T02:15:03;2.3;;;0.4;;
67685;SDS011;54469;52.090;4.312;2022-07-06T02:20:04;2.3;;;0.4;;
67685;SDS011;54469;52.090;4.312;2022-07-06T02:25:03;2.3;;;0.4;;
67685;SDS011;54469;52.090;4.312;2022-07-06T02:30:03;2.3;;;0.4;;
67685;SDS011;54469;52.090;4.312;2022-07-06T02:35:03;2.3;;;0.4;;
67685;SDS011;54469;52.090;4.312;2022-07-06T02:40:03;2.3;;;0.4;;
67685;SDS011;54469;52.090;4.312;2022-07-06T02:45:03;2.3;;;0.4;;
67685;SDS011;54469;52.090;4.312;2022-07-06T02:50:03;2.3;;;0.4;;
67685;SDS011;54469;52.090;4.312;2022-07-06T02:55:03;2.3;;;0.4;;
67685;SDS011;54469;52.090;4.312;2022-07-06T03:00:03;2.3;;;0.4;;
67685;SDS011;54469;52.090;4.312;2022-07-06T03:05:03;2.3;;;0.4;;
67685;SDS011;54469;52.090;4.312;2022-07-06T03:10:03;2.3;;;0.4;;
67685;SDS011;54469;52.090;4.312;2022-07-06T03:15:03;2.3;;;0.4;;
67685;SDS011;54469;52.090;4.312;2022-07-06T03:20:03;2.3;;;0.4;;
67685;SDS011;54469;52.090;4.312;2022-07-06T03:25:03;2.3;;;0.4;;
67685;SDS011;54469;52.090;4.312;2022-07-06T03:30:03;2.3;;;0.4;;
67685;SDS011;54469;52.090;4.312;2022-07-06T03:35:03;2.3;;;0.4;;
67685;SDS011;54469;52.090;4.312;2022-07-06T03:40:03;2.3;;;0.4;;
67685;SDS011;54469;52.090;4.312;2022-07-06T03:45:04;2.3;;;0.4;;
67685;SDS011;54469;52.090;4.312;2022-07-06T03:50:03;2.3;;;0.4;;
67685;SDS011;54469;52.090;4.312;2022-07-06T03:55:03;5.2;;;0.7;;
67685;SDS011;54469;52.090;4.312;2022-07-06T04:00:03;5.2;;;0.7;;
67685;SDS011;54469;52.090;4.312;2022-07-06T04:05:03;1.9;;;0.5;;
67685;SDS011;54469;52.090;4.312;2022-07-06T04:10:03;4.2;;;0.5;;
67685;SDS011;54469;52.090;4.312;2022-07-06T04:15:03;4.2;;;0.5;;
67685;SDS011;54469;52.090;4.312;2022-07-06T04:20:03;2;;;0.3;;
67685;SDS011;54469;52.090;4.312;2022-07-06T04:25:04;4;;;0.6;;
67685;SDS011;54469;52.090;4.312;2022-07-06T04:30:04;4;;;0.6;;
67685;SDS011;54469;52.090;4.312;2022-07-06T04:35:04;4;;;0.6;;
67685;SDS011;54469;52.090;4.312;2022-07-06T04:40:03;1.6;;;0.4;;
67685;SDS011;54469;52.090;4.312;2022-07-06T04:45:04;3.8;;;0.5;;
67685;SDS011;54469;52.090;4.312;2022-07-06T04:50:04;3.8;;;0.5;;
67685;SDS011;54469;52.090;4.312;2022-07-06T04:55:03;1.1;;;0.4;;
67685;SDS011;54469;52.090;4.312;2022-07-06T05:00:03;4.9;;;0.5;;
67685;SDS011;54469;52.090;4.312;2022-07-06T05:05:04;2.6;;;0.5;;
67685;SDS011;54469;52.090;4.312;2022-07-06T05:10:03;2.6;;;0.5;;
67685;SDS011;54469;52.090;4.312;2022-07-06T05:15:03;2.6;;;0.5;;
67685;SDS011;54469;52.090;4.312;2022-07-06T05:20:03;2.6;;;0.5;;
67685;SDS011;54469;52.090;4.312;2022-07-06T05:25:03;2.6;;;0.5;;
67685;SDS011;54469;52.090;4.312;2022-07-06T05:30:03;2.6;;;0.5;;
67685;SDS011;54469;52.090;4.312;2022-07-06T05:35:03;2.6;;;0.5;;
67685;SDS011;54469;52.090;4.312;2022-07-06T05:40:03;2.6;;;0.5;;
67685;SDS011;54469;52.090;4.312;2022-07-06T05:45:04;5.9;;;0.5;;
67685;SDS011;54469;52.090;4.312;2022-07-06T05:50:03;2.8;;;0.5;;
67685;SDS011;54469;52.090;4.312;2022-07-06T05:55:03;2.8;;;0.5;;
67685;SDS011;54469;52.090;4.312;2022-07-06T06:00:03;2.8;;;0.5;;
67685;SDS011;54469;52.090;4.312;2022-07-06T06:05:03;2.8;;;0.5;;
67685;SDS011;54469;52.090;4.312;2022-07-06T06:10:03;2.8;;;0.5;;
67685;SDS011;54469;52.090;4.312;2022-07-06T06:15:03;5.1;;;1.1;;
67685;SDS011;54469;52.090;4.312;2022-07-06T06:20:03;2.4;;;0.4;;
67685;SDS011;54469;52.090;4.312;2022-07-06T06:25:04;2.4;;;0.4;;
67685;SDS011;54469;52.090;4.312;2022-07-06T06:30:03;2.4;;;0.4;;
67685;SDS011;54469;52.090;4.312;2022-07-06T06:35:05;2.4;;;0.4;;
67685;SDS011;54469;52.090;4.312;2022-07-06T06:40:04;2.4;;;0.4;;
67685;SDS011;54469;52.090;4.312;2022-07-06T06:45:03;2.4;;;0.4;;
67685;SDS011;54469;52.090;4.312;2022-07-06T06:50:03;2.4;;;0.4;;
67685;SDS011;54469;52.090;4.312;2022-07-06T06:55:03;2.4;;;0.4;;
67685;SDS011;54469;52.090;4.312;2022-07-06T07:00:04;2.4;;;0.4;;
67685;SDS011;54469;52.090;4.312;2022-07-06T07:05:04;2.4;;;0.4;;
67685;SDS011;54469;52.090;4.312;2022-07-06T07:10:04;2.4;;;0.4;;
67685;SDS011;54469;52.090;4.312;2022-07-06T07:15:03;2.4;;;0.4;;
67685;SDS011;54469;52.090;4.312;2022-07-06T07:20:04;2.4;;;0.4;;
67685;SDS011;54469;52.090;4.312;2022-07-06T07:25:04;2.4;;;0.4;;
67685;SDS011;54469;52.090;4.312;2022-07-06T07:30:03;2.4;;;0.4;;
67685;SDS011;54469;52.090;4.312;2022-07-06T07:35:04;2.4;;;0.4;;
67685;SDS011;54469;52.090;4.312;2022-07-06T07:40:03;2.4;;;0.4;;
67685;SDS011;54469;52.090;4.312;2022-07-06T07:45:04;2.4;;;0.4;;
67685;SDS011;54469;52.090;4.312;2022-07-06T07:50:03;2.4;;;0.4;;
67685;SDS011;54469;52.090;4.312;2022-07-06T07:55:03;2.4;;;0.4;;
67685;SDS011;54469;52.090;4.312;2022-07-06T08:00:03;2.4;;;0.4;;
67685;SDS011;54469;52.090;4.312;2022-07-06T08:05:03;2.4;;;0.4;;
67685;SDS011;54469;52.090;4.312;2022-07-06T08:10:03;2.4;;;0.4;;
67685;SDS011;54469;52.090;4.312;2022-07-06T08:15:03;2.4;;;0.4;;
67685;SDS011;54469;52.090;4.312;2022-07-06T08:20:03;2.4;;;0.4;;
67685;SDS011;54469;52.090;4.312;2022-07-06T08:25:03;2.4;;;0.4;;
67685;SDS011;54469;52.090;4.312;2022-07-06T08:30:02;2.4;;;0.4;;
67685;SDS011;54469;52.090;4.312;2022-07-06T08:35:03;2.4;;;0.4;;
67685;SDS011;54469;52.090;4.312;2022-07-06T08:40:04;2.4;;;0.4;;
67685;SDS011;54469;52.090;4.312;2022-07-06T08:45:04;2.4;;;0.4;;
67685;SDS011;54469;52.090;4.312;2022-07-06T08:50:03;2.4;;;0.4;;
67685;SDS011;54469;52.090;4.312;2022-07-06T08:55:03;2.4;;;0.4;;
67685;SDS011;54469;52.090;4.312;2022-07-06T09:00:03;2.4;;;0.4;;
67685;SDS011;54469;52.090;4.312;2022-07-06T09:05:03;2.4;;;0.4;;
67685;SDS011;54469;52.090;4.312;2022-07-06T09:10:03;2.4;;;0.4;;
67685;SDS011;54469;52.090;4.312;2022-07-06T09:15:04;2.4;;;0.4;;
67685;SDS011;54469;52.090;4.312;2022-07-06T09:20:04;2.4;;;0.4;;
67685;SDS011;54469;52.090;4.312;2022-07-06T09:25:04;2.4;;;0.4;;
67685;SDS011;54469;52.090;4.312;2022-07-06T09:30:04;2.4;;;0.4;;
67685;SDS011;54469;52.090;4.312;2022-07-06T09:35:03;2.4;;;0.4;;
67685;SDS011;54469;52.090;4.312;2022-07-06T09:40:15;2.4;;;0.4;;
67685;SDS011;54469;52.090;4.312;2022-07-06T09:45:04;2.4;;;0.4;;
67685;SDS011;54469;52.090;4.312;2022-07-06T09:50:04;2.4;;;0.4;;
67685;SDS011;54469;52.090;4.312;2022-07-06T09:55:05;2.4;;;0.4;;
67685;SDS011;54469;52.090;4.312;2022-07-06T10:00:05;4.4;;;2.4;;
67685;SDS011;54469;52.090;4.312;2022-07-06T10:05:03;2.6;;;0.8;;
67685;SDS011;54469;52.090;4.312;2022-07-06T10:10:03;2.6;;;0.8;;
67685;SDS011;54469;52.090;4.312;2022-07-06T10:15:04;2.6;;;0.8;;
67685;SDS011;54469;52.090;4.312;2022-07-06T10:20:04;2.6;;;0.8;;
67685;SDS011;54469;52.090;4.312;2022-07-06T10:25:03;2.6;;;0.8;;
67685;SDS011;54469;52.090;4.312;2022-07-06T10:30:03;2.5;;;2;;
67685;SDS011;54469;52.090;4.312;2022-07-06T10:35:03;2.5;;;2;;
67685;SDS011;54469;52.090;4.312;2022-07-06T10:40:03;2.5;;;2;;
67685;SDS011;54469;52.090;4.312;2022-07-06T10:45:03;2.5;;;2;;
67685;SDS011;54469;52.090;4.312;2022-07-06T10:50:03;2.5;;;2;;
67685;SDS011;54469;52.090;4.312;2022-07-06T10:55:03;1.8;;;1;;
67685;SDS011;54469;52.090;4.312;2022-07-06T11:00:04;1.8;;;1;;
67685;SDS011;54469;52.090;4.312;2022-07-06T11:05:04;1.8;;;1;;
67685;SDS011;54469;52.090;4.312;2022-07-06T11:10:03;1.8;;;1;;
67685;SDS011;54469;52.090;4.312;2022-07-06T11:15:03;4.4;;;0.7;;
67685;SDS011;54469;52.090;4.312;2022-07-06T11:20:08;4.4;;;0.7;;
67685;SDS011;54469;52.090;4.312;2022-07-06T11:25:03;4.4;;;0.7;;
67685;SDS011;54469;52.090;4.312;2022-07-06T11:30:03;4.4;;;0.7;;
67685;SDS011;54469;52.090;4.312;2022-07-06T11:35:03;0.8;;;0.5;;
67685;SDS011;54469;52.090;4.312;2022-07-06T11:40:05;5.3;;;0.9;;
67685;SDS011;54469;52.090;4.312;2022-07-06T11:45:03;5.3;;;0.9;;
67685;SDS011;54469;52.090;4.312;2022-07-06T11:50:04;5.3;;;0.9;;
67685;SDS011;54469;52.090;4.312;2022-07-06T11:55:03;5.3;;;0.9;;
67685;SDS011;54469;52.090;4.312;2022-07-06T12:00:04;8.1;;;1.5;;
67685;SDS011;54469;52.090;4.312;2022-07-06T12:05:03;3.1;;;0.9;;
67685;SDS011;54469;52.090;4.312;2022-07-06T12:10:03;3.1;;;0.9;;
67685;SDS011;54469;52.090;4.312;2022-07-06T12:15:03;6;;;1.3;;
67685;SDS011;54469;52.090;4.312;2022-07-06T12:20:05;6;;;1.3;;
67685;SDS011;54469;52.090;4.312;2022-07-06T12:25:03;6;;;1.3;;
67685;SDS011;54469;52.090;4.312;2022-07-06T12:30:10;3.3;;;1;;
67685;SDS011;54469;52.090;4.312;2022-07-06T12:35:03;3.3;;;1;;
67685;SDS011;54469;52.090;4.312;2022-07-06T12:40:11;6.8;;;1.7;;
67685;SDS011;54469;52.090;4.312;2022-07-06T12:45:04;10.8;;;1.5;;
67685;SDS011;54469;52.090;4.312;2022-07-06T12:50:04;8.199999999999998;;;1.4;;
67685;SDS011;54469;52.090;4.312;2022-07-06T12:55:04;8.199999999999998;;;1.4;;
67685;SDS011;54469;52.090;4.312;2022-07-06T13:00:04;6;;;2.1;;
67685;SDS011;54469;52.090;4.312;2022-07-06T13:05:03;8;;;1.9;;
67685;SDS011;54469;52.090;4.312;2022-07-06T13:10:03;3.6;;;1.8;;
67685;SDS011;54469;52.090;4.312;2022-07-06T13:15:03;3.6;;;1.8;;
67685;SDS011;54469;52.090;4.312;2022-07-06T13:20:04;5.8;;;2.6;;
67685;SDS011;54469;52.090;4.312;2022-07-06T13:25:03;7.6;;;3.7;;
67685;SDS011;54469;52.090;4.312;2022-07-06T13:30:03;7.6;;;3.7;;
67685;SDS011;54469;52.090;4.312;2022-07-06T13:35:03;7.6;;;3.7;;
67685;SDS011;54469;52.090;4.312;2022-07-06T13:40:04;9.800000000000002;;;4.6;;
67685;SDS011;54469;52.090;4.312;2022-07-06T13:45:03;13.8;;;5.4;;
67685;SDS011;54469;52.090;4.312;2022-07-06T13:50:03;9.800000000000002;;;5.2;;
67685;SDS011;54469;52.090;4.312;2022-07-06T13:55:04;12.3;;;5.8;;
67685;SDS011;54469;52.090;4.312;2022-07-06T14:00:04;9.4;;;3.7;;
67685;SDS011;54469;52.090;4.312;2022-07-06T14:05:03;9.4;;;3.7;;
67685;SDS011;54469;52.090;4.312;2022-07-06T14:10:03;12.7;;;6.1;;
67685;SDS011;54469;52.090;4.312;2022-07-06T14:15:03;12.7;;;6.1;;
67685;SDS011;54469;52.090;4.312;2022-07-06T14:20:03;12.7;;;6.1;;
67685;SDS011;54469;52.090;4.312;2022-07-06T14:25:03;12.7;;;6.1;;
67685;SDS011;54469;52.090;4.312;2022-07-06T14:30:03;11.3;;;4.7;;
67685;SDS011;54469;52.090;4.312;2022-07-06T14:35:04;7.6;;;2.7;;
67685;SDS011;54469;52.090;4.312;2022-07-06T14:40:03;7.6;;;2.7;;
67685;SDS011;54469;52.090;4.312;2022-07-06T14:45:05;7.6;;;2.7;;
67685;SDS011;54469;52.090;4.312;2022-07-06T14:50:04;7.6;;;2.7;;
67685;SDS011;54469;52.090;4.312;2022-07-06T14:55:03;22.7;;;3.6;;
67685;SDS011;54469;52.090;4.312;2022-07-06T15:00:04;15;;;3;;
67685;SDS011;54469;52.090;4.312;2022-07-06T15:05:03;4.7;;;1.5;;
67685;SDS011;54469;52.090;4.312;2022-07-06T15:10:05;8.9;;;1.4;;
67685;SDS011;54469;52.090;4.312;2022-07-06T15:15:03;8.9;;;1.4;;
67685;SDS011;54469;52.090;4.312;2022-07-06T15:20:04;3.9;;;1.1;;
67685;SDS011;54469;52.090;4.312;2022-07-06T15:25:03;6.2;;;1.3;;
67685;SDS011;54469;52.090;4.312;2022-07-06T15:30:04;2.5;;;1.2;;
67685;SDS011;54469;52.090;4.312;2022-07-06T15:35:03;11.6;;;1.6;;
67685;SDS011;54469;52.090;4.312;2022-07-06T15:40:03;4.2;;;1.3;;
67685;SDS011;54469;52.090;4.312;2022-07-06T15:45:04;4.2;;;1.3;;
67685;SDS011;54469;52.090;4.312;2022-07-06T15:50:04;4.2;;;1.3;;
67685;SDS011;54469;52.090;4.312;2022-07-06T15:55:03;4.2;;;1.3;;
67685;SDS011;54469;52.090;4.312;2022-07-06T16:00:13;7.9;;;1.5;;
67685;SDS011;54469;52.090;4.312;2022-07-06T16:05:05;3.9;;;1.1;;
67685;SDS011;54469;52.090;4.312;2022-07-06T16:10:03;8;;;1.4;;
67685;SDS011;54469;52.090;4.312;2022-07-06T16:15:03;3.9;;;1.3;;
67685;SDS011;54469;52.090;4.312;2022-07-06T16:20:03;8.4;;;2.1;;
67685;SDS011;54469;52.090;4.312;2022-07-06T16:25:04;5.2;;;1.7;;
67685;SDS011;54469;52.090;4.312;2022-07-06T16:30:05;5.2;;;1.7;;
67685;SDS011;54469;52.090;4.312;2022-07-06T16:35:03;5.2;;;1.7;;
67685;SDS011;54469;52.090;4.312;2022-07-06T16:40:03;7.3;;;1.6;;
67685;SDS011;54469;52.090;4.312;2022-07-06T16:45:04;7.3;;;1.6;;
67685;SDS011;54469;52.090;4.312;2022-07-06T16:50:03;7.3;;;1.6;;
67685;SDS011;54469;52.090;4.312;2022-07-06T16:55:04;4.8;;;1.4;;
67685;SDS011;54469;52.090;4.312;2022-07-06T17:00:03;4.8;;;1.4;;
67685;SDS011;54469;52.090;4.312;2022-07-06T17:05:03;4.8;;;1.4;;
67685;SDS011;54469;52.090;4.312;2022-07-06T17:10:03;4.8;;;1.4;;
67685;SDS011;54469;52.090;4.312;2022-07-06T17:15:04;4.8;;;1.4;;
67685;SDS011;54469;52.090;4.312;2022-07-06T17:20:04;4.8;;;1.4;;
67685;SDS011;54469;52.090;4.312;2022-07-06T17:25:03;4.8;;;1.4;;
67685;SDS011;54469;52.090;4.312;2022-07-06T17:30:03;7;;;2.1;;
67685;SDS011;54469;52.090;4.312;2022-07-06T17:35:04;3.5;;;1.7;;
67685;SDS011;54469;52.090;4.312;2022-07-06T17:40:03;3.5;;;1.7;;
67685;SDS011;54469;52.090;4.312;2022-07-06T17:45:03;9.1;;;2.1;;
67685;SDS011;54469;52.090;4.312;2022-07-06T17:50:03;4.2;;;1.7;;
67685;SDS011;54469;52.090;4.312;2022-07-06T17:55:04;4.2;;;1.7;;
67685;SDS011;54469;52.090;4.312;2022-07-06T18:00:04;4.2;;;1.7;;
67685;SDS011;54469;52.090;4.312;2022-07-06T18:05:03;4.2;;;1.7;;
67685;SDS011;54469;52.090;4.312;2022-07-06T18:10:03;7;;;2.6;;
67685;SDS011;54469;52.090;4.312;2022-07-06T18:15:03;3.9;;;1.8;;
67685;SDS011;54469;52.090;4.312;2022-07-06T18:20:04;3.9;;;1.8;;
67685;SDS011;54469;52.090;4.312;2022-07-06T18:25:03;6.8;;;2.2;;
67685;SDS011;54469;52.090;4.312;2022-07-06T18:30:04;9.199999999999998;;;2;;
67685;SDS011;54469;52.090;4.312;2022-07-06T18:35:03;4.5;;;1.6;;
67685;SDS011;54469;52.090;4.312;2022-07-06T18:40:03;4.5;;;1.6;;
67685;SDS011;54469;52.090;4.312;2022-07-06T18:45:03;8.1;;;3.2;;
67685;SDS011;54469;52.090;4.312;2022-07-06T18:50:03;8.1;;;3.2;;
67685;SDS011;54469;52.090;4.312;2022-07-06T18:55:03;8.1;;;3.2;;
67685;SDS011;54469;52.090;4.312;2022-07-06T19:00:04;6.1;;;2.9;;
67685;SDS011;54469;52.090;4.312;2022-07-06T19:05:03;6.1;;;2.9;;
67685;SDS011;54469;52.090;4.312;2022-07-06T19:10:04;6.1;;;2.9;;
67685;SDS011;54469;52.090;4.312;2022-07-06T19:15:03;8.1;;;3.1;;
67685;SDS011;54469;52.090;4.312;2022-07-06T19:20:03;8.1;;;3.1;;
67685;SDS011;54469;52.090;4.312;2022-07-06T19:25:03;5.6;;;2.8;;
67685;SDS011;54469;52.090;4.312;2022-07-06T19:30:03;5.6;;;2.8;;
67685;SDS011;54469;52.090;4.312;2022-07-06T19:35:03;5.6;;;2.8;;
67685;SDS011;54469;52.090;4.312;2022-07-06T19:40:04;5.6;;;2.8;;
67685;SDS011;54469;52.090;4.312;2022-07-06T19:45:04;5.6;;;2.8;;
67685;SDS011;54469;52.090;4.312;2022-07-06T19:50:03;9.300000000000002;;;2.4;;
67685;SDS011;54469;52.090;4.312;2022-07-06T19:55:04;5.6;;;2.3;;
67685;SDS011;54469;52.090;4.312;2022-07-06T20:00:03;5.6;;;2.3;;
67685;SDS011;54469;52.090;4.312;2022-07-06T20:05:03;5.6;;;2.3;;
67685;SDS011;54469;52.090;4.312;2022-07-06T20:10:03;5.6;;;2.3;;
67685;SDS011;54469;52.090;4.312;2022-07-06T20:15:03;5.6;;;2.3;;
67685;SDS011;54469;52.090;4.312;2022-07-06T20:20:04;5.6;;;2.3;;
67685;SDS011;54469;52.090;4.312;2022-07-06T20:25:04;5.6;;;2.3;;
67685;SDS011;54469;52.090;4.312;2022-07-06T20:30:03;3.5;;;1.7;;
67685;SDS011;54469;52.090;4.312;2022-07-06T20:35:03;3.5;;;1.7;;
67685;SDS011;54469;52.090;4.312;2022-07-06T20:40:03;3.5;;;1.7;;
67685;SDS011;54469;52.090;4.312;2022-07-06T20:45:03;3.5;;;1.7;;
67685;SDS011;54469;52.090;4.312;2022-07-06T20:50:03;3.5;;;1.7;;
67685;SDS011;54469;52.090;4.312;2022-07-06T20:55:04;3.5;;;1.7;;
67685;SDS011;54469;52.090;4.312;2022-07-06T21:00:04;7;;;1.8;;
67685;SDS011;54469;52.090;4.312;2022-07-06T21:05:03;7;;;1.8;;
67685;SDS011;54469;52.090;4.312;2022-07-06T21:10:03;4.7;;;1.7;;
67685;SDS011;54469;52.090;4.312;2022-07-06T21:15:03;4.7;;;1.7;;
67685;SDS011;54469;52.090;4.312;2022-07-06T21:20:03;4.7;;;1.7;;
67685;SDS011;54469;52.090;4.312;2022-07-06T21:25:03;4.7;;;1.7;;
67685;SDS011;54469;52.090;4.312;2022-07-06T21:30:03;4.7;;;1.7;;
67685;SDS011;54469;52.090;4.312;2022-07-06T21:35:03;4.7;;;1.7;;
67685;SDS011;54469;52.090;4.312;2022-07-06T21:40:03;7.4;;;2.5;;
67685;SDS011;54469;52.090;4.312;2022-07-06T21:45:03;7.4;;;2.5;;
67685;SDS011;54469;52.090;4.312;2022-07-06T21:50:03;4.3;;;1.3;;
67685;SDS011;54469;52.090;4.312;2022-07-06T21:55:03;9;;;2;;
67685;SDS011;54469;52.090;4.312;2022-07-06T22:00:03;5.3;;;1.4;;
67685;SDS011;54469;52.090;4.312;2022-07-06T22:05:04;7.4;;;1.7;;
67685;SDS011;54469;52.090;4.312;2022-07-06T22:10:04;3.3;;;1.1;;
67685;SDS011;54469;52.090;4.312;2022-07-06T22:15:04;6.2;;;2;;
67685;SDS011;54469;52.090;4.312;2022-07-06T22:20:03;6.2;;;2;;
67685;SDS011;54469;52.090;4.312;2022-07-06T22:25:04;6.2;;;2;;
67685;SDS011;54469;52.090;4.312;2022-07-06T22:30:03;6.2;;;2;;
67685;SDS011;54469;52.090;4.312;2022-07-06T22:35:03;9.800000000000002;;;1.9;;
67685;SDS011;54469;52.090;4.312;2022-07-06T22:40:03;5.1;;;1.7;;
67685;SDS011;54469;52.090;4.312;2022-07-06T22:45:03;7.6;;;1.8;;
67685;SDS011;54469;52.090;4.312;2022-07-06T22:50:03;7.6;;;1.8;;
67685;SDS011;54469;52.090;4.312;2022-07-06T22:55:03;7.6;;;1.8;;
67685;SDS011;54469;52.090;4.312;2022-07-06T23:00:04;7.6;;;1.8;;
67685;SDS011;54469;52.090;4.312;2022-07-06T23:05:04;10.6;;;2.5;;
67685;SDS011;54469;52.090;4.312;2022-07-06T23:10:03;7.9;;;1.5;;
67685;SDS011;54469;52.090;4.312;2022-07-06T23:15:04;7.9;;;1.5;;
67685;SDS011;54469;52.090;4.312;2022-07-06T23:20:03;7.9;;;1.5;;
67685;SDS011;54469;52.090;4.312;2022-07-06T23:25:03;7.9;;;1.5;;
67685;SDS011;54469;52.090;4.312;2022-07-06T23:30:03;7.9;;;1.5;;
67685;SDS011;54469;52.090;4.312;2022-07-06T23:35:04;7.9;;;1.5;;
67685;SDS011;54469;52.090;4.312;2022-07-06T23:40:03;7.9;;;1.5;;
67685;SDS011;54469;52.090;4.312;2022-07-06T23:45:03;11.9;;;2.1;;
67685;SDS011;54469;52.090;4.312;2022-07-06T23:50:03;11.9;;;2.1;;
67685;SDS011;54469;52.090;4.312;2022-07-06T23:55:03;11.9;;;2.1;;
